createdAt,value
2019-02-10T00:02:08.247Z,9.00
2019-02-10T00:04:38.374Z,9.00
2019-02-10T00:07:08.666Z,9.00
2019-02-10T00:09:38.842Z,9.00
2019-02-10T00:12:08.993Z,9.00
2019-02-10T00:14:39.179Z,8.90
2019-02-10T00:17:09.422Z,9.00
2019-02-10T00:19:39.910Z,9.70
2019-02-10T00:22:10.211Z,9.50
2019-02-10T00:24:40.655Z,9.40
2019-02-10T00:27:11.213Z,9.30
2019-02-10T00:29:41.280Z,9.20
2019-02-10T00:32:11.443Z,9.10
2019-02-10T00:34:42.725Z,9.10
2019-02-10T00:37:13.966Z,9.00
2019-02-10T00:39:44.127Z,9.10
2019-02-10T00:42:14.371Z,9.00
2019-02-10T00:44:44.668Z,9.00
2019-02-10T00:47:14.939Z,9.00
2019-02-10T00:49:45.183Z,9.00
2019-02-10T00:52:15.243Z,9.00
2019-02-10T00:54:45.392Z,9.10
2019-02-10T00:57:15.504Z,9.10
2019-02-10T00:59:45.702Z,9.10
2019-02-10T01:02:15.932Z,9.10
2019-02-10T01:04:46.119Z,9.10
2019-02-10T01:07:16.283Z,9.10
2019-02-10T01:09:46.570Z,9.00
2019-02-10T01:12:16.808Z,9.00
2019-02-10T01:14:47.023Z,9.00
2019-02-10T01:17:17.160Z,9.00
2019-02-10T01:19:47.328Z,9.00
2019-02-10T01:22:17.558Z,9.00
2019-02-10T01:24:47.778Z,9.00
2019-02-10T01:27:17.877Z,9.00
2019-02-10T01:29:48.042Z,9.00
2019-02-10T01:32:18.322Z,8.90
2019-02-10T01:34:48.518Z,8.90
2019-02-10T01:37:18.591Z,8.90
2019-02-10T01:39:48.781Z,8.90
2019-02-10T01:42:18.892Z,8.90
2019-02-10T01:44:49.101Z,8.80
2019-02-10T01:47:19.251Z,8.80
2019-02-10T01:49:49.393Z,8.80
2019-02-10T01:52:19.634Z,8.80
2019-02-10T01:54:49.714Z,8.70
2019-02-10T01:57:19.789Z,8.80
2019-02-10T01:59:49.897Z,8.80
2019-02-10T02:02:20.100Z,8.70
2019-02-10T02:04:50.510Z,8.60
2019-02-10T02:07:20.702Z,8.70
2019-02-10T02:09:50.935Z,8.70
2019-02-10T02:12:21.412Z,8.60
2019-02-10T02:14:51.540Z,8.60
2019-02-10T02:17:21.795Z,8.60
2019-02-10T02:19:52.341Z,8.60
2019-02-10T02:22:22.529Z,8.50
2019-02-10T02:24:52.783Z,8.50
2019-02-10T02:27:22.939Z,8.50
2019-02-10T02:29:53.085Z,8.40
2019-02-10T02:32:23.267Z,8.50
2019-02-10T02:34:53.391Z,8.50
2019-02-10T02:37:23.496Z,8.50
2019-02-10T02:39:53.578Z,8.50
2019-02-10T02:42:23.793Z,8.50
2019-02-10T02:44:53.945Z,8.40
2019-02-10T02:47:24.082Z,8.40
2019-02-10T02:49:54.225Z,8.30
2019-02-10T02:52:24.440Z,8.20
2019-02-10T02:54:54.543Z,8.10
2019-02-10T02:57:25.609Z,8.10
2019-02-10T02:59:55.899Z,8.00
2019-02-10T03:02:26.138Z,7.80
2019-02-10T03:04:56.684Z,7.80
2019-02-10T03:07:27.169Z,7.70
2019-02-10T03:09:57.757Z,7.60
2019-02-10T03:12:27.908Z,7.70
2019-02-10T03:14:58.075Z,7.70
2019-02-10T03:17:28.279Z,7.60
2019-02-10T03:19:58.484Z,7.60
2019-02-10T03:22:28.655Z,7.60
2019-02-10T03:24:58.820Z,7.50
2019-02-10T03:27:28.982Z,7.60
2019-02-10T03:29:59.120Z,7.50
2019-02-10T03:32:29.347Z,7.60
2019-02-10T03:34:59.557Z,7.60
2019-02-10T03:37:29.732Z,7.60
2019-02-10T03:39:59.963Z,7.50
2019-02-10T03:42:30.383Z,7.50
2019-02-10T03:45:00.485Z,7.60
2019-02-10T03:47:30.626Z,7.50
2019-02-10T03:50:00.805Z,7.60
2019-02-10T03:52:31.307Z,7.50
2019-02-10T03:55:01.575Z,7.60
2019-02-10T03:57:31.808Z,7.50
2019-02-10T04:00:02.663Z,7.60
2019-02-10T04:02:32.804Z,7.60
2019-02-10T04:05:03.039Z,7.50
2019-02-10T04:07:36.209Z,7.50
2019-02-10T04:10:05.210Z,7.50
2019-02-10T04:12:35.310Z,7.50
2019-02-10T04:15:05.537Z,7.50
2019-02-10T04:17:36.943Z,7.50
2019-02-10T04:20:09.494Z,7.50
2019-02-10T04:22:39.604Z,7.60
2019-02-10T04:25:09.824Z,7.60
2019-02-10T04:27:40.156Z,7.60
2019-02-10T04:30:10.315Z,7.50
2019-02-10T04:32:40.491Z,7.50
2019-02-10T04:35:11.646Z,7.50
2019-02-10T04:37:46.086Z,7.40
2019-02-10T04:40:13.685Z,7.40
2019-02-10T04:42:43.859Z,7.40
2019-02-10T04:45:13.960Z,7.40
2019-02-10T04:47:45.028Z,7.30
2019-02-10T04:50:15.183Z,7.30
2019-02-10T04:52:45.381Z,7.30
2019-02-10T04:55:15.486Z,7.30
2019-02-10T04:57:45.938Z,7.30
2019-02-10T05:00:16.131Z,7.30
2019-02-10T05:02:46.242Z,7.30
2019-02-10T05:05:16.387Z,7.30
2019-02-10T05:07:54.321Z,7.30
2019-02-10T05:10:18.426Z,7.30
2019-02-10T05:12:48.613Z,7.30
2019-02-10T05:15:18.671Z,7.30
2019-02-10T05:17:48.852Z,7.30
2019-02-10T05:20:19.044Z,7.30
2019-02-10T05:22:49.182Z,7.20
2019-02-10T05:25:19.262Z,7.20
2019-02-10T05:27:49.490Z,7.20
2019-02-10T05:30:19.600Z,7.20
2019-02-10T05:32:49.749Z,7.20
2019-02-10T05:35:19.964Z,7.20
2019-02-10T05:37:51.429Z,7.30
2019-02-10T05:40:21.608Z,7.30
2019-02-10T05:42:51.841Z,7.40
2019-02-10T05:45:22.183Z,7.40
2019-02-10T05:47:52.301Z,7.40
2019-02-10T05:50:22.815Z,7.30
2019-02-10T05:52:53.034Z,7.40
2019-02-10T05:55:23.178Z,7.40
2019-02-10T05:57:53.323Z,7.50
2019-02-10T06:00:23.419Z,7.50
2019-02-10T06:02:53.658Z,7.50
2019-02-10T06:05:25.869Z,7.60
2019-02-10T06:07:55.985Z,7.50
2019-02-10T06:10:26.137Z,7.60
2019-02-10T06:12:56.292Z,7.60
2019-02-10T06:15:26.645Z,7.70
2019-02-10T06:17:56.786Z,7.70
2019-02-10T06:20:27.083Z,7.70
2019-02-10T06:22:57.334Z,7.70
2019-02-10T06:25:27.477Z,7.60
2019-02-10T06:27:57.641Z,7.70
2019-02-10T06:30:27.824Z,7.80
2019-02-10T06:32:57.935Z,7.80
2019-02-10T06:35:28.092Z,7.80
2019-02-10T06:37:58.180Z,7.80
2019-02-10T06:40:28.336Z,7.90
2019-02-10T06:42:58.477Z,7.90
2019-02-10T06:45:28.759Z,7.90
2019-02-10T06:47:59.025Z,8.00
2019-02-10T06:50:29.247Z,7.90
2019-02-10T06:52:59.365Z,7.90
2019-02-10T06:55:29.487Z,8.00
2019-02-10T06:57:59.738Z,8.00
2019-02-10T07:00:51.642Z,8.00
2019-02-10T07:03:54.875Z,8.00
2019-02-10T07:06:24.978Z,8.00
2019-02-10T07:08:55.121Z,8.10
2019-02-10T07:11:25.197Z,8.10
2019-02-10T07:13:57.578Z,8.10
2019-02-10T07:16:35.917Z,8.10
2019-02-10T07:19:41.638Z,8.10
2019-02-10T07:23:08.276Z,8.20
2019-02-10T07:26:01.345Z,8.20
2019-02-10T07:29:00.766Z,8.30
2019-02-10T07:31:37.618Z,8.40
2019-02-10T07:34:48.371Z,8.50
2019-02-10T07:37:37.603Z,8.60
2019-02-10T07:40:34.462Z,8.60
2019-02-10T07:43:39.466Z,8.70
2019-02-10T07:46:50.478Z,8.70
2019-02-10T07:49:47.148Z,8.60
2019-02-10T07:52:59.583Z,8.70
2019-02-10T07:56:12.804Z,8.70
2019-02-10T07:58:59.551Z,8.70
2019-02-10T08:01:46.238Z,8.70
2019-02-10T08:05:04.688Z,8.70
2019-02-10T08:07:55.263Z,8.70
2019-02-10T08:10:45.339Z,8.80
2019-02-10T08:13:43.725Z,9.00
2019-02-10T08:16:41.618Z,9.10
2019-02-10T08:19:57.485Z,9.30
2019-02-10T08:23:09.486Z,9.40
2019-02-10T08:26:09.136Z,9.60
2019-02-10T08:28:49.224Z,9.70
2019-02-10T08:32:02.618Z,9.70
2019-02-10T08:35:11.527Z,9.70
2019-02-10T08:38:18.290Z,9.80
2019-02-10T08:41:23.792Z,9.90
2019-02-10T08:44:36.429Z,11.70
2019-02-10T08:48:11.319Z,11.80
2019-02-10T08:51:15.495Z,11.60
2019-02-10T08:53:47.039Z,11.00
2019-02-10T08:56:17.275Z,10.70
2019-02-10T08:58:47.378Z,10.60
2019-02-10T09:01:17.506Z,10.50
2019-02-10T09:03:47.595Z,10.50
2019-02-10T09:06:17.741Z,10.50
2019-02-10T09:08:49.465Z,10.50
2019-02-10T09:11:19.636Z,10.50
2019-02-10T09:13:50.717Z,10.50
2019-02-10T09:16:20.897Z,10.50
2019-02-10T09:18:50.958Z,10.50
2019-02-10T09:21:21.136Z,10.50
2019-02-10T09:23:51.297Z,10.50
2019-02-10T09:26:21.397Z,10.60
2019-02-10T09:28:51.744Z,10.50
2019-02-10T09:31:21.854Z,10.50
2019-02-10T09:33:51.951Z,10.40
2019-02-10T09:36:22.085Z,10.30
2019-02-10T09:38:52.492Z,10.30
2019-02-10T09:41:22.658Z,10.20
2019-02-10T09:43:52.779Z,10.20
2019-02-10T09:46:23.943Z,10.20
2019-02-10T09:48:54.424Z,10.10
2019-02-10T09:51:24.566Z,10.00
2019-02-10T09:53:54.691Z,9.90
2019-02-10T09:56:25.123Z,9.90
2019-02-10T09:58:55.233Z,9.80
2019-02-10T10:01:25.406Z,9.80
2019-02-10T10:03:55.580Z,9.70
2019-02-10T10:06:25.739Z,9.70
2019-02-10T10:08:56.147Z,9.70
2019-02-10T10:11:26.274Z,9.70
2019-02-10T10:13:57.920Z,9.70
2019-02-10T10:16:28.108Z,9.70
2019-02-10T10:18:58.205Z,9.70
2019-02-10T10:21:28.398Z,9.60
2019-02-10T10:23:58.497Z,9.60
2019-02-10T10:26:28.802Z,9.70
2019-02-10T10:28:59.262Z,9.70
2019-02-10T10:31:29.474Z,9.70
2019-02-10T10:34:00.624Z,9.70
2019-02-10T10:36:30.779Z,9.70
2019-02-10T10:39:01.647Z,9.70
2019-02-10T10:41:33.402Z,9.70
2019-02-10T10:44:03.517Z,9.70
2019-02-10T10:46:33.679Z,9.70
2019-02-10T10:49:03.846Z,9.70
2019-02-10T10:51:34.051Z,9.70
2019-02-10T10:54:04.142Z,9.70
2019-02-10T10:56:34.247Z,9.70
2019-02-10T10:59:05.776Z,9.80
2019-02-10T11:01:35.898Z,9.80
2019-02-10T11:04:06.122Z,9.90
2019-02-10T11:06:36.199Z,9.90
2019-02-10T11:09:07.053Z,10.00
2019-02-10T11:11:37.270Z,10.00
2019-02-10T11:14:07.458Z,10.00
2019-02-10T11:16:37.673Z,10.00
2019-02-10T11:19:07.720Z,10.00
2019-02-10T11:21:38.097Z,10.00
2019-02-10T11:24:08.240Z,10.10
2019-02-10T11:26:38.322Z,10.20
2019-02-10T11:29:08.445Z,10.10
2019-02-10T11:31:38.581Z,10.10
2019-02-10T11:34:08.696Z,10.00
2019-02-10T11:36:38.775Z,10.00
2019-02-10T11:39:08.958Z,10.00
2019-02-10T11:41:39.077Z,10.00
2019-02-10T11:44:09.676Z,10.00
2019-02-10T11:46:39.846Z,9.80
2019-02-10T11:49:10.693Z,9.80
2019-02-10T11:51:40.790Z,9.80
2019-02-10T11:54:11.029Z,9.80
2019-02-10T11:56:41.208Z,9.90
2019-02-10T11:59:11.797Z,9.90
2019-02-10T12:01:41.876Z,9.80
2019-02-10T12:04:11.942Z,9.70
2019-02-10T12:06:42.108Z,9.60
2019-02-10T12:09:12.533Z,9.50
2019-02-10T12:11:42.699Z,9.50
2019-02-10T12:14:13.174Z,9.50
2019-02-10T12:16:43.352Z,9.50
2019-02-10T12:19:13.575Z,9.50
2019-02-10T12:21:43.684Z,9.50
2019-02-10T12:24:13.868Z,9.50
2019-02-10T12:26:44.014Z,9.40
2019-02-10T12:29:14.468Z,9.30
2019-02-10T12:31:44.637Z,9.30
2019-02-10T12:34:14.800Z,9.20
2019-02-10T12:36:44.930Z,9.20
2019-02-10T12:39:16.151Z,9.20
2019-02-10T12:41:46.417Z,9.20
2019-02-10T12:44:16.578Z,9.00
2019-02-10T12:46:47.124Z,9.00
2019-02-10T12:49:17.315Z,9.00
2019-02-10T12:51:47.451Z,9.00
2019-02-10T12:54:17.611Z,8.90
2019-02-10T12:56:48.118Z,8.90
2019-02-10T12:59:18.658Z,8.80
2019-02-10T13:01:48.812Z,8.80
2019-02-10T13:04:19.072Z,8.90
2019-02-10T13:06:49.283Z,9.00
2019-02-10T13:09:20.533Z,9.10
2019-02-10T13:11:58.153Z,9.10
2019-02-10T13:14:22.618Z,9.10
2019-02-10T13:16:52.666Z,9.20
2019-02-10T13:19:22.778Z,9.20
2019-02-10T13:21:52.915Z,9.20
2019-02-10T13:24:23.058Z,9.20
2019-02-10T13:26:53.375Z,9.30
2019-02-10T13:29:23.474Z,9.30
2019-02-10T13:31:53.632Z,9.30
2019-02-10T13:34:23.769Z,9.40
2019-02-10T13:36:54.254Z,9.40
2019-02-10T13:39:25.519Z,9.30
2019-02-10T13:41:54.012Z,9.30
2019-02-10T13:44:24.236Z,9.20
2019-02-10T13:46:54.370Z,9.20
2019-02-10T13:49:24.482Z,9.30
2019-02-10T13:51:54.651Z,9.30
2019-02-10T13:54:24.750Z,9.30
2019-02-10T13:56:54.860Z,9.30
2019-02-10T13:59:25.092Z,9.20
2019-02-10T14:01:55.227Z,9.10
2019-02-10T14:04:25.397Z,9.10
2019-02-10T14:06:55.716Z,9.20
2019-02-10T14:09:25.862Z,9.20
2019-02-10T14:11:56.251Z,9.20
2019-02-10T14:14:26.374Z,9.20
2019-02-10T14:16:56.526Z,9.20
2019-02-10T14:19:26.690Z,9.10
2019-02-10T14:21:56.915Z,9.10
2019-02-10T14:24:28.169Z,9.00
2019-02-10T14:26:58.306Z,9.00
2019-02-10T14:29:28.514Z,9.00
2019-02-10T14:31:59.003Z,8.90
2019-02-10T14:34:29.217Z,8.90
2019-02-10T14:36:59.391Z,8.90
2019-02-10T14:39:29.538Z,9.00
2019-02-10T14:41:59.627Z,9.00
2019-02-10T14:44:29.893Z,9.10
2019-02-10T14:46:59.980Z,9.00
2019-02-10T14:49:30.134Z,9.00
2019-02-10T14:52:00.330Z,8.90
2019-02-10T14:54:30.439Z,8.90
2019-02-10T14:57:00.571Z,8.80
2019-02-10T14:59:30.832Z,8.70
2019-02-10T15:02:01.265Z,8.60
2019-02-10T15:04:31.535Z,8.60
2019-02-10T15:07:01.655Z,8.50
2019-02-10T15:09:31.824Z,8.60
2019-02-10T15:12:01.905Z,8.50
2019-02-10T15:14:32.062Z,8.40
2019-02-10T15:17:02.193Z,8.30
2019-02-10T15:19:32.419Z,8.20
2019-02-10T15:22:02.610Z,8.10
2019-02-10T15:24:33.925Z,8.10
2019-02-10T15:27:04.092Z,8.10
2019-02-10T15:29:34.286Z,8.10
2019-02-10T15:32:04.394Z,8.10
2019-02-10T15:34:34.619Z,8.10
2019-02-10T15:37:04.675Z,8.10
2019-02-10T15:39:34.719Z,8.10
2019-02-10T15:42:09.363Z,8.20
2019-02-10T15:44:36.775Z,8.20
2019-02-10T15:47:06.980Z,8.20
2019-02-10T15:49:37.137Z,8.20
2019-02-10T15:52:07.259Z,8.30
2019-02-10T15:54:38.432Z,8.30
2019-02-10T15:57:08.578Z,8.30
2019-02-10T15:59:38.668Z,8.30
2019-02-10T16:02:08.813Z,8.30
2019-02-10T16:04:39.284Z,8.20
2019-02-10T16:07:09.457Z,8.10
2019-02-10T16:09:39.594Z,8.00
2019-02-10T16:12:09.818Z,8.00
2019-02-10T16:14:40.957Z,7.90
2019-02-10T16:17:11.095Z,7.90
2019-02-10T16:19:41.253Z,7.80
2019-02-10T16:22:11.492Z,7.70
2019-02-10T16:24:41.667Z,7.60
2019-02-10T16:27:11.907Z,7.60
2019-02-10T16:29:42.086Z,7.50
2019-02-10T16:32:12.462Z,7.50
2019-02-10T16:34:42.758Z,7.50
2019-02-10T16:37:13.102Z,7.50
2019-02-10T16:39:43.241Z,7.40
2019-02-10T16:42:13.491Z,7.40
2019-02-10T16:44:43.624Z,7.30
2019-02-10T16:47:14.771Z,7.30
2019-02-10T16:49:44.884Z,7.30
2019-02-10T16:52:14.974Z,7.20
2019-02-10T16:54:45.160Z,7.10
2019-02-10T16:57:15.625Z,7.10
2019-02-10T16:59:45.755Z,7.10
2019-02-10T17:02:15.952Z,7.10
2019-02-10T17:04:46.450Z,7.10
2019-02-10T17:07:16.617Z,7.10
2019-02-10T17:09:46.782Z,7.00
2019-02-10T17:12:17.333Z,7.00
2019-02-10T17:14:47.461Z,7.00
2019-02-10T17:17:17.654Z,6.90
2019-02-10T17:19:47.745Z,6.90
2019-02-10T17:22:17.933Z,6.90
2019-02-10T17:24:48.488Z,6.90
2019-02-10T17:27:18.670Z,6.90
2019-02-10T17:29:49.155Z,6.90
2019-02-10T17:32:19.346Z,6.80
2019-02-10T17:34:49.956Z,6.80
2019-02-10T17:37:20.101Z,6.70
2019-02-10T17:39:50.190Z,6.80
2019-02-10T17:42:20.343Z,6.70
2019-02-10T17:44:50.552Z,6.60
2019-02-10T17:47:20.802Z,6.60
2019-02-10T17:49:51.023Z,6.60
2019-02-10T17:52:21.619Z,6.60
2019-02-10T17:54:51.870Z,6.60
2019-02-10T17:57:22.099Z,6.50
2019-02-10T17:59:52.245Z,6.50
2019-02-10T18:02:22.449Z,6.50
2019-02-10T18:04:52.535Z,6.40
2019-02-10T18:07:23.600Z,6.40
2019-02-10T18:09:54.822Z,6.30
2019-02-10T18:12:24.950Z,6.30
2019-02-10T18:15:25.946Z,6.30
2019-02-10T18:18:15.502Z,6.30
2019-02-10T18:21:19.783Z,6.30
2019-02-10T18:24:08.998Z,6.30
2019-02-10T18:26:56.846Z,6.30
2019-02-10T18:29:55.155Z,6.30
2019-02-10T18:32:42.639Z,6.30
2019-02-10T18:35:31.869Z,6.20
2019-02-10T18:38:17.507Z,6.20
2019-02-10T18:40:58.463Z,6.10
2019-02-10T18:43:46.045Z,6.10
2019-02-10T18:46:33.934Z,6.10
2019-02-10T18:49:15.272Z,6.00
2019-02-10T18:52:05.443Z,5.90
2019-02-10T18:54:54.583Z,5.90
2019-02-10T18:57:42.420Z,5.90
2019-02-10T19:00:30.537Z,5.80
2019-02-10T19:03:17.266Z,5.70
2019-02-10T19:06:12.132Z,5.70
2019-02-10T19:09:03.405Z,5.60
2019-02-10T19:11:37.047Z,5.60
2019-02-10T19:14:16.118Z,5.50
2019-02-10T19:17:08.034Z,5.50
2019-02-10T19:19:55.627Z,5.40
2019-02-10T19:22:48.309Z,5.30
2019-02-10T19:25:35.830Z,5.30
2019-02-10T19:28:15.389Z,5.30
2019-02-10T19:31:02.967Z,5.20
2019-02-10T19:33:49.178Z,5.20
2019-02-10T19:36:41.332Z,5.20
2019-02-10T19:39:26.292Z,5.10
2019-02-10T19:42:13.989Z,5.10
2019-02-10T19:45:03.101Z,5.00
2019-02-10T19:48:01.518Z,5.00
2019-02-10T19:50:50.653Z,5.00
2019-02-10T19:53:44.705Z,4.90
2019-02-10T19:56:32.300Z,4.80
2019-02-10T19:59:27.494Z,4.90
2019-02-10T20:02:20.786Z,4.80
2019-02-10T20:05:08.667Z,4.80
2019-02-10T20:07:51.586Z,4.70
2019-02-10T20:10:43.791Z,4.70
2019-02-10T20:13:23.032Z,4.70
2019-02-10T20:16:01.348Z,4.60
2019-02-10T20:18:53.331Z,4.60
2019-02-10T20:21:37.367Z,4.60
2019-02-10T20:24:26.556Z,4.60
2019-02-10T20:27:14.211Z,4.60
2019-02-10T20:30:15.551Z,4.50
2019-02-10T20:32:54.442Z,4.50
2019-02-10T20:35:42.923Z,4.50
2019-02-10T20:38:38.134Z,4.50
2019-02-10T20:41:27.023Z,4.50
2019-02-10T20:44:09.435Z,4.50
2019-02-10T20:46:56.400Z,4.50
2019-02-10T20:49:31.937Z,4.40
2019-02-10T20:52:36.329Z,4.40
2019-02-10T20:55:17.307Z,4.40
2019-02-10T20:58:18.659Z,4.30
2019-02-10T21:00:57.312Z,4.30
2019-02-10T21:06:47.536Z,4.10
2019-02-10T21:09:42.621Z,4.00
2019-02-10T21:12:21.480Z,4.00
2019-02-10T21:15:17.603Z,3.90
2019-02-10T21:18:01.687Z,3.90
2019-02-10T21:20:45.844Z,3.80
2019-02-10T21:23:46.885Z,3.80
2019-02-10T21:26:24.498Z,3.80
2019-02-10T21:29:16.632Z,3.70
2019-02-10T21:32:12.034Z,3.60
2019-02-10T21:35:13.188Z,3.60
2019-02-10T21:38:02.303Z,3.50
2019-02-10T21:40:57.491Z,3.40
2019-02-10T21:43:56.499Z,3.30
2019-02-10T21:46:33.191Z,3.20
2019-02-10T21:49:06.930Z,3.20
2019-02-10T21:51:37.438Z,3.20
2019-02-10T21:54:08.667Z,3.20
2019-02-10T21:56:39.255Z,3.20
2019-02-10T21:59:09.426Z,3.20
2019-02-10T22:01:39.625Z,3.20
2019-02-10T22:04:09.736Z,3.20
2019-02-10T22:06:39.886Z,3.20
2019-02-10T22:09:10.004Z,3.20
2019-02-10T22:11:40.607Z,3.20
2019-02-10T22:14:10.855Z,3.10
2019-02-10T22:16:40.995Z,3.20
2019-02-10T22:19:11.143Z,3.20
2019-02-10T22:21:41.418Z,3.20
2019-02-10T22:24:11.635Z,3.10
2019-02-10T22:26:41.842Z,3.20
2019-02-10T22:29:11.983Z,3.10
2019-02-10T22:31:42.190Z,3.10
2019-02-10T22:34:13.333Z,3.20
2019-02-10T22:36:43.564Z,3.30
2019-02-10T22:39:13.722Z,3.30
2019-02-10T22:41:43.854Z,3.40
2019-02-10T22:44:14.023Z,3.40
2019-02-10T22:46:44.250Z,3.50
2019-02-10T22:49:14.470Z,3.50
2019-02-10T22:51:44.634Z,3.60
2019-02-10T22:54:14.842Z,3.60
2019-02-10T22:56:44.994Z,3.70
2019-02-10T22:59:15.407Z,3.70
2019-02-10T23:01:45.588Z,3.70
2019-02-10T23:04:15.715Z,3.80
2019-02-10T23:06:46.082Z,3.90
2019-02-10T23:09:19.831Z,3.90
2019-02-10T23:11:49.990Z,3.90
2019-02-10T23:14:20.130Z,4.00
2019-02-10T23:16:50.323Z,4.00
2019-02-10T23:19:20.464Z,4.00
2019-02-10T23:21:50.506Z,4.00
2019-02-10T23:24:20.597Z,4.00
2019-02-10T23:26:50.796Z,4.00
2019-02-10T23:29:20.958Z,4.00
2019-02-10T23:31:51.119Z,4.10
2019-02-10T23:34:21.277Z,4.20
2019-02-10T23:36:51.379Z,4.20
2019-02-10T23:39:21.727Z,4.20
2019-02-10T23:41:52.131Z,4.20
2019-02-10T23:44:22.541Z,4.20
2019-02-10T23:46:52.783Z,4.20
2019-02-10T23:49:22.936Z,4.20
2019-02-10T23:51:53.108Z,4.20
2019-02-10T23:54:23.275Z,4.30
2019-02-10T23:56:53.518Z,4.30
2019-02-10T23:59:23.660Z,4.30
